createdAt,value
2017-09-28T00:00:48.637Z,15.22
2017-09-28T00:03:18.477Z,15.25
2017-09-28T00:05:47.831Z,15.27
2017-09-28T00:08:16.886Z,15.29
2017-09-28T00:10:45.973Z,15.28
2017-09-28T00:22:24.385Z,15.30
2017-09-28T00:24:53.473Z,15.33
2017-09-28T00:27:22.537Z,15.33
2017-09-28T00:29:51.618Z,15.42
2017-09-28T00:32:20.685Z,15.44
2017-09-28T00:34:49.773Z,15.41
2017-09-28T00:37:18.861Z,15.43
2017-09-28T00:39:47.964Z,15.48
2017-09-28T00:42:17.105Z,15.47
2017-09-28T00:44:46.188Z,15.48
2017-09-28T00:47:16.055Z,15.45
2017-09-28T00:49:45.281Z,15.50
2017-09-28T00:52:14.397Z,15.50
2017-09-28T00:54:44.261Z,15.55
2017-09-28T00:57:13.426Z,15.55
2017-09-28T00:59:43.265Z,15.56
2017-09-28T01:02:12.340Z,15.58
2017-09-28T01:04:41.420Z,15.52
2017-09-28T01:07:11.236Z,15.51
2017-09-28T01:09:40.337Z,15.54
2017-09-28T01:12:09.414Z,15.51
2017-09-28T01:14:39.269Z,15.52
2017-09-28T01:17:08.359Z,15.57
2017-09-28T01:19:37.452Z,15.55
2017-09-28T01:22:06.866Z,15.57
2017-09-28T01:24:35.952Z,15.57
2017-09-28T01:27:05.018Z,15.58
2017-09-28T01:29:34.085Z,15.57
2017-09-28T01:32:03.172Z,15.57
2017-09-28T01:34:32.289Z,15.59
2017-09-28T01:37:02.112Z,15.61
2017-09-28T01:39:31.974Z,15.61
2017-09-28T01:42:01.036Z,15.65
2017-09-28T01:44:30.106Z,15.67
2017-09-28T01:47:00.301Z,15.71
2017-09-28T01:49:30.010Z,15.67
2017-09-28T01:51:59.302Z,15.70
2017-09-28T01:54:28.355Z,15.71
2017-09-28T01:56:57.432Z,15.71
2017-09-28T01:59:27.283Z,15.69
2017-09-28T02:01:56.368Z,15.71
2017-09-28T02:04:25.466Z,15.72
2017-09-28T02:06:54.584Z,15.69
2017-09-28T02:09:23.641Z,15.71
2017-09-28T02:11:53.737Z,15.71
2017-09-28T02:14:22.800Z,15.73
2017-09-28T02:16:51.885Z,15.72
2017-09-28T02:19:20.964Z,15.73
2017-09-28T02:21:50.062Z,15.68
2017-09-28T02:24:19.136Z,15.67
2017-09-28T02:26:48.219Z,15.67
2017-09-28T02:29:18.041Z,15.66
2017-09-28T02:31:47.106Z,15.66
2017-09-28T02:34:16.179Z,15.70
2017-09-28T02:36:45.234Z,15.68
2017-09-28T02:39:14.323Z,15.69
2017-09-28T02:41:43.409Z,15.69
2017-09-28T02:44:13.245Z,15.71
2017-09-28T02:46:42.313Z,15.68
2017-09-28T02:49:12.178Z,15.68
2017-09-28T02:51:41.985Z,15.68
2017-09-28T02:54:11.053Z,15.69
2017-09-28T02:56:40.116Z,15.70
2017-09-28T02:59:09.978Z,15.70
2017-09-28T03:01:39.128Z,15.69
2017-09-28T03:04:08.161Z,15.71
2017-09-28T03:06:37.230Z,15.72
2017-09-28T03:09:07.052Z,15.71
2017-09-28T03:11:36.161Z,15.72
2017-09-28T03:14:06.720Z,15.73
2017-09-28T03:16:35.766Z,15.73
2017-09-28T03:19:05.583Z,15.71
2017-09-28T03:21:34.665Z,15.72
2017-09-28T03:24:04.530Z,15.75
2017-09-28T03:26:33.973Z,15.77
2017-09-28T03:29:03.048Z,15.75
2017-09-28T03:31:32.114Z,15.75
2017-09-28T03:34:01.178Z,15.77
2017-09-28T03:36:30.991Z,15.81
2017-09-28T03:39:00.065Z,15.82
2017-09-28T03:41:29.144Z,15.81
2017-09-28T03:43:58.199Z,15.76
2017-09-28T03:46:27.280Z,15.81
2017-09-28T03:48:56.360Z,15.83
2017-09-28T03:51:26.217Z,15.82
2017-09-28T03:53:56.203Z,15.83
2017-09-28T03:56:25.260Z,15.83
2017-09-28T03:58:54.352Z,15.83
2017-09-28T04:01:23.420Z,15.85
2017-09-28T04:03:52.528Z,15.86
2017-09-28T04:06:21.582Z,15.84
2017-09-28T04:08:50.655Z,15.79
2017-09-28T04:11:20.495Z,15.77
2017-09-28T04:13:50.464Z,15.80
2017-09-28T04:16:19.568Z,15.78
2017-09-28T04:18:49.556Z,15.81
2017-09-28T04:21:18.634Z,15.78
2017-09-28T04:23:47.709Z,15.80
2017-09-28T04:26:16.783Z,15.80
2017-09-28T04:28:46.626Z,15.81
2017-09-28T04:31:15.668Z,15.82
2017-09-28T04:33:44.751Z,15.82
2017-09-28T04:36:13.852Z,15.86
2017-09-28T04:38:42.933Z,15.90
2017-09-28T04:41:12.120Z,15.88
2017-09-28T04:43:41.176Z,15.90
2017-09-28T04:46:10.991Z,15.87
2017-09-28T04:48:40.101Z,15.91
2017-09-28T04:51:09.269Z,15.90
2017-09-28T04:53:38.302Z,15.95
2017-09-28T04:56:07.669Z,15.93
2017-09-28T04:58:36.703Z,15.91
2017-09-28T05:01:05.812Z,15.90
2017-09-28T05:03:34.885Z,15.93
2017-09-28T05:06:03.959Z,15.94
2017-09-28T05:08:33.808Z,15.94
2017-09-28T05:11:02.897Z,15.94
2017-09-28T05:13:31.964Z,15.93
2017-09-28T05:16:01.840Z,16.01
2017-09-28T05:18:30.910Z,15.97
2017-09-28T05:20:59.963Z,15.95
2017-09-28T05:23:29.809Z,15.95
2017-09-28T05:25:58.875Z,15.98
2017-09-28T05:28:28.940Z,15.97
2017-09-28T05:30:58.009Z,15.99
2017-09-28T05:33:27.076Z,15.99
2017-09-28T05:35:56.926Z,16.03
2017-09-28T05:38:26.010Z,16.04
2017-09-28T05:40:55.097Z,16.06
2017-09-28T05:43:24.181Z,16.04
2017-09-28T05:45:54.014Z,16.07
2017-09-28T05:48:23.365Z,16.06
2017-09-28T05:50:52.489Z,16.05
2017-09-28T05:53:21.555Z,16.06
2017-09-28T05:55:50.637Z,16.07
2017-09-28T05:58:19.720Z,16.09
2017-09-28T06:00:48.805Z,16.05
2017-09-28T06:03:17.884Z,16.09
2017-09-28T06:05:46.941Z,16.07
2017-09-28T06:08:16.080Z,16.06
2017-09-28T06:10:45.138Z,16.09
2017-09-28T06:13:15.793Z,16.15
2017-09-28T06:15:45.620Z,16.19
2017-09-28T06:18:14.704Z,16.20
2017-09-28T06:20:44.549Z,16.22
2017-09-28T06:23:13.615Z,16.25
2017-09-28T06:25:42.720Z,16.27
2017-09-28T06:28:12.531Z,16.26
2017-09-28T06:30:41.620Z,16.29
2017-09-28T06:33:10.682Z,16.30
2017-09-28T06:35:39.752Z,16.31
2017-09-28T06:38:08.820Z,16.33
2017-09-28T06:40:38.287Z,16.32
2017-09-28T06:43:07.656Z,16.40
2017-09-28T06:45:36.721Z,16.42
2017-09-28T06:48:05.808Z,16.47
2017-09-28T06:50:34.892Z,16.52
2017-09-28T06:53:03.973Z,16.57
2017-09-28T06:55:33.813Z,16.63
2017-09-28T06:58:02.895Z,16.70
2017-09-28T07:00:31.972Z,16.75
2017-09-28T07:03:01.077Z,16.75
2017-09-28T07:05:30.920Z,16.79
2017-09-28T07:07:59.992Z,16.84
2017-09-28T07:10:29.850Z,16.82
2017-09-28T07:12:59.696Z,16.87
2017-09-28T07:15:28.771Z,16.92
2017-09-28T07:17:57.833Z,16.97
2017-09-28T07:20:26.939Z,17.01
2017-09-28T07:22:55.985Z,17.02
2017-09-28T07:25:25.823Z,17.00
2017-09-28T07:27:54.891Z,17.05
2017-09-28T07:30:23.953Z,17.13
2017-09-28T07:32:53.030Z,17.20
2017-09-28T07:35:22.124Z,17.22
2017-09-28T07:37:51.175Z,17.26
2017-09-28T07:40:20.249Z,17.34
2017-09-28T07:42:50.825Z,17.40
2017-09-28T07:45:19.908Z,17.51
2017-09-28T07:47:49.718Z,17.56
2017-09-28T07:50:19.544Z,17.64
2017-09-28T07:52:48.631Z,17.72
2017-09-28T07:55:18.664Z,17.73
2017-09-28T07:57:47.762Z,17.76
2017-09-28T08:00:16.819Z,17.75
2017-09-28T08:02:45.896Z,17.78
2017-09-28T08:05:15.740Z,17.79
2017-09-28T08:07:45.600Z,17.84
2017-09-28T08:10:14.656Z,17.92
2017-09-28T08:12:43.707Z,17.96
2017-09-28T08:15:12.810Z,18.00
2017-09-28T08:17:41.840Z,18.06
2017-09-28T08:20:10.943Z,18.08
2017-09-28T08:22:40.025Z,18.09
2017-09-28T08:25:09.998Z,18.14
2017-09-28T08:27:39.041Z,18.16
2017-09-28T08:30:08.103Z,18.22
2017-09-28T08:32:37.215Z,18.34
2017-09-28T08:35:06.272Z,18.43
2017-09-28T08:37:35.353Z,18.51
2017-09-28T08:40:04.413Z,18.63
2017-09-28T08:42:34.244Z,18.72
2017-09-28T08:45:03.341Z,18.79
2017-09-28T08:47:32.405Z,18.88
2017-09-28T08:50:02.261Z,18.93
2017-09-28T08:52:31.324Z,18.99
2017-09-28T08:55:01.153Z,19.04
2017-09-28T08:57:30.226Z,19.13
2017-09-28T09:00:00.093Z,19.21
2017-09-28T09:02:29.203Z,19.21
2017-09-28T09:04:58.261Z,19.19
2017-09-28T09:07:27.335Z,19.13
2017-09-28T09:09:57.150Z,19.16
2017-09-28T09:12:26.224Z,19.23
2017-09-28T09:14:55.288Z,19.28
2017-09-28T09:17:24.384Z,19.32
2017-09-28T09:19:53.466Z,19.40
2017-09-28T09:22:22.828Z,19.46
2017-09-28T09:24:52.680Z,19.50
2017-09-28T09:27:21.747Z,19.54
2017-09-28T09:29:51.622Z,19.60
2017-09-28T09:32:20.681Z,19.62
2017-09-28T09:34:49.768Z,19.63
2017-09-28T09:37:18.851Z,19.58
2017-09-28T09:39:47.897Z,19.58
2017-09-28T09:42:16.994Z,19.59
2017-09-28T09:44:46.067Z,19.66
2017-09-28T09:47:15.143Z,19.76
2017-09-28T09:49:44.212Z,19.96
2017-09-28T09:52:14.116Z,20.22
2017-09-28T09:54:43.179Z,20.45
2017-09-28T09:57:12.276Z,20.69
2017-09-28T09:59:41.379Z,20.86
2017-09-28T10:02:10.465Z,21.00
2017-09-28T10:04:39.551Z,21.11
2017-09-28T10:07:14.305Z,21.28
2017-09-28T10:09:50.867Z,21.40
2017-09-28T10:12:29.581Z,21.58
2017-09-28T10:15:05.579Z,21.81
2017-09-28T10:17:34.632Z,21.99
2017-09-28T10:20:03.706Z,22.10
2017-09-28T10:22:32.755Z,22.20
2017-09-28T10:25:02.637Z,22.30
2017-09-28T10:27:31.710Z,22.39
2017-09-28T10:30:00.801Z,22.39
2017-09-28T10:32:29.872Z,22.45
2017-09-28T10:34:59.724Z,22.45
2017-09-28T10:37:28.795Z,22.54
2017-09-28T10:39:57.881Z,22.65
2017-09-28T10:42:26.942Z,22.62
2017-09-28T10:44:56.045Z,22.53
2017-09-28T10:47:25.872Z,22.50
2017-09-28T10:49:55.747Z,22.60
2017-09-28T10:52:24.821Z,22.67
2017-09-28T10:54:53.881Z,22.66
2017-09-28T10:57:23.714Z,22.72
2017-09-28T10:59:52.772Z,22.77
2017-09-28T11:02:21.824Z,22.85
2017-09-28T11:04:50.897Z,22.94
2017-09-28T11:07:19.978Z,22.96
2017-09-28T11:09:49.649Z,22.93
2017-09-28T11:12:18.700Z,22.93
2017-09-28T11:14:47.767Z,22.95
2017-09-28T11:17:17.596Z,22.98
2017-09-28T11:19:46.690Z,22.90
2017-09-28T11:22:15.760Z,22.88
2017-09-28T11:24:45.627Z,22.89
2017-09-28T11:27:14.718Z,22.86
2017-09-28T11:29:43.814Z,22.89
2017-09-28T11:32:12.883Z,22.95
2017-09-28T11:34:41.923Z,22.96
2017-09-28T11:37:10.998Z,22.92
2017-09-28T11:39:40.057Z,22.89
2017-09-28T11:42:09.892Z,22.81
2017-09-28T11:44:39.043Z,22.77
2017-09-28T11:47:08.118Z,22.79
2017-09-28T11:49:37.296Z,22.66
2017-09-28T11:52:06.410Z,22.65
2017-09-28T11:54:35.774Z,22.66
2017-09-28T11:57:04.965Z,22.66
2017-09-28T11:59:34.050Z,22.67
2017-09-28T12:02:03.084Z,22.66
2017-09-28T12:04:32.161Z,22.68
2017-09-28T12:07:01.211Z,22.66
2017-09-28T12:09:30.282Z,22.67
2017-09-28T12:11:59.357Z,22.67
2017-09-28T12:14:28.426Z,22.72
2017-09-28T12:16:58.267Z,22.75
2017-09-28T12:19:27.369Z,22.82
2017-09-28T12:21:56.423Z,22.85
2017-09-28T12:24:26.254Z,22.79
2017-09-28T12:26:56.088Z,22.73
2017-09-28T12:29:25.149Z,22.66
2017-09-28T12:31:54.205Z,22.63
2017-09-28T12:34:23.284Z,22.64
2017-09-28T12:36:52.336Z,22.66
2017-09-28T12:39:21.421Z,22.59
2017-09-28T12:41:51.272Z,22.47
2017-09-28T12:44:20.343Z,22.39
2017-09-28T12:46:49.408Z,22.33
2017-09-28T12:49:18.459Z,22.25
2017-09-28T12:51:47.541Z,22.18
2017-09-28T12:54:16.601Z,22.14
2017-09-28T12:56:46.446Z,22.12
2017-09-28T12:59:15.522Z,22.10
2017-09-28T13:01:45.342Z,22.05
2017-09-28T13:04:14.519Z,21.99
2017-09-28T13:06:43.559Z,21.90
2017-09-28T13:09:12.636Z,21.75
2017-09-28T13:11:41.685Z,21.71
2017-09-28T13:14:10.789Z,21.59
2017-09-28T13:16:39.846Z,21.58
2017-09-28T13:19:08.924Z,21.58
2017-09-28T13:21:37.979Z,21.66
2017-09-28T13:24:07.042Z,21.77
2017-09-28T13:26:36.087Z,21.77
2017-09-28T13:29:05.157Z,21.80
2017-09-28T13:31:34.231Z,21.87
2017-09-28T13:34:03.316Z,21.94
2017-09-28T13:36:32.381Z,21.93
2017-09-28T13:39:01.469Z,21.86
2017-09-28T13:41:30.527Z,21.82
2017-09-28T13:43:59.603Z,21.81
2017-09-28T13:46:28.671Z,21.84
2017-09-28T13:48:57.810Z,21.91
2017-09-28T13:51:26.888Z,21.95
2017-09-28T13:53:56.920Z,21.94
2017-09-28T13:56:26.078Z,21.96
2017-09-28T13:58:55.132Z,22.03
2017-09-28T14:01:24.280Z,22.12
2017-09-28T14:03:53.373Z,22.12
2017-09-28T14:06:22.444Z,22.13
2017-09-28T14:08:51.577Z,22.15
2017-09-28T14:11:22.516Z,22.25
2017-09-28T14:13:51.675Z,22.27
2017-09-28T14:16:21.500Z,22.30
2017-09-28T14:18:50.578Z,22.34
2017-09-28T14:21:19.652Z,22.34
2017-09-28T14:23:50.964Z,22.32
2017-09-28T14:26:20.037Z,22.25
2017-09-28T14:28:49.774Z,22.27
2017-09-28T14:31:18.863Z,22.36
2017-09-28T14:33:47.921Z,22.43
2017-09-28T14:36:18.287Z,22.49
2017-09-28T14:38:47.340Z,22.52
2017-09-28T14:41:16.413Z,22.52
2017-09-28T14:43:46.224Z,22.47
2017-09-28T14:46:16.085Z,22.51
2017-09-28T14:48:45.125Z,22.47
2017-09-28T14:51:14.219Z,22.43
2017-09-28T14:53:43.319Z,22.42
2017-09-28T14:56:12.349Z,22.43
2017-09-28T14:58:41.430Z,22.40
2017-09-28T15:01:11.250Z,22.34
2017-09-28T15:03:40.422Z,22.30
2017-09-28T15:06:10.253Z,22.30
2017-09-28T15:08:39.335Z,22.35
2017-09-28T15:11:08.422Z,22.34
2017-09-28T15:13:37.514Z,22.31
2017-09-28T15:16:06.594Z,22.35
2017-09-28T15:18:35.640Z,22.37
2017-09-28T15:21:04.713Z,22.38
2017-09-28T15:23:34.622Z,22.35
2017-09-28T15:26:03.932Z,22.34
2017-09-28T15:28:33.783Z,22.33
2017-09-28T15:31:02.883Z,22.33
2017-09-28T15:33:31.925Z,22.31
2017-09-28T15:36:01.761Z,22.22
2017-09-28T15:38:31.631Z,22.10
2017-09-28T15:41:00.749Z,22.01
2017-09-28T15:43:30.621Z,22.01
2017-09-28T15:45:59.684Z,22.00
2017-09-28T15:48:28.772Z,21.89
2017-09-28T15:50:58.613Z,21.92
2017-09-28T15:53:27.662Z,21.92
2017-09-28T15:55:57.529Z,21.94
2017-09-28T15:58:27.149Z,21.94
2017-09-28T16:00:56.245Z,21.96
2017-09-28T16:03:25.305Z,22.01
2017-09-28T16:05:54.380Z,22.01
2017-09-28T16:08:24.240Z,22.03
2017-09-28T16:10:53.369Z,21.93
2017-09-28T16:13:22.432Z,21.85
2017-09-28T16:15:51.504Z,21.81
2017-09-28T16:18:20.635Z,21.79
2017-09-28T16:20:49.711Z,21.77
2017-09-28T16:23:19.115Z,21.76
2017-09-28T16:25:48.220Z,21.72
2017-09-28T16:28:17.273Z,21.67
2017-09-28T16:30:46.435Z,21.66
2017-09-28T16:33:15.521Z,21.66
2017-09-28T16:35:46.401Z,21.65
2017-09-28T16:38:16.211Z,21.65
2017-09-28T16:40:45.349Z,21.63
2017-09-28T16:43:15.211Z,21.65
2017-09-28T16:45:45.044Z,21.59
2017-09-28T16:48:14.125Z,21.57
2017-09-28T16:50:43.968Z,21.55
2017-09-28T16:53:13.057Z,21.52
2017-09-28T16:55:42.146Z,21.49
2017-09-28T16:58:11.243Z,21.47
2017-09-28T17:00:40.400Z,21.44
2017-09-28T17:03:09.477Z,21.41
2017-09-28T17:05:38.547Z,21.37
2017-09-28T17:08:07.628Z,21.33
2017-09-28T17:10:36.744Z,21.28
2017-09-28T17:13:05.817Z,21.19
2017-09-28T17:15:34.903Z,21.13
2017-09-28T17:18:04.022Z,21.06
2017-09-28T17:20:33.082Z,20.97
2017-09-28T17:23:02.978Z,20.88
2017-09-28T17:25:32.057Z,20.82
2017-09-28T17:28:01.164Z,20.77
2017-09-28T17:30:30.224Z,20.72
2017-09-28T17:32:59.333Z,20.67
2017-09-28T17:35:28.423Z,20.62
2017-09-28T17:37:57.572Z,20.53
2017-09-28T17:40:27.438Z,20.49
2017-09-28T17:42:56.513Z,20.46
2017-09-28T17:45:25.592Z,20.42
2017-09-28T17:47:54.683Z,20.38
2017-09-28T17:50:23.785Z,20.37
2017-09-28T17:52:52.847Z,20.31
2017-09-28T17:55:22.733Z,20.27
2017-09-28T17:57:52.350Z,20.19
2017-09-28T18:00:21.434Z,20.17
2017-09-28T18:02:50.518Z,20.20
2017-09-28T18:05:19.615Z,20.20
2017-09-28T18:07:49.873Z,20.17
2017-09-28T18:10:19.740Z,20.16
2017-09-28T18:12:48.845Z,20.17
2017-09-28T18:15:17.937Z,20.16
2017-09-28T18:17:47.039Z,20.15
2017-09-28T18:20:16.952Z,20.11
2017-09-28T18:22:46.025Z,20.07
2017-09-28T18:25:15.127Z,20.03
2017-09-28T18:27:44.205Z,20.00
2017-09-28T18:30:13.308Z,19.98
2017-09-28T18:32:43.136Z,19.96
2017-09-28T18:35:12.225Z,19.88
2017-09-28T18:37:42.368Z,19.79
2017-09-28T18:40:11.433Z,19.77
2017-09-28T18:42:40.677Z,19.73
2017-09-28T18:45:09.791Z,19.71
2017-09-28T18:47:38.845Z,19.58
2017-09-28T18:50:08.399Z,19.56
2017-09-28T18:52:37.483Z,19.55
2017-09-28T18:55:06.563Z,19.55
2017-09-28T18:57:35.698Z,19.56
2017-09-28T19:00:05.976Z,19.56
2017-09-28T19:02:35.071Z,19.55
2017-09-28T19:05:04.925Z,19.49
2017-09-28T19:07:34.790Z,19.47
2017-09-28T19:10:03.865Z,19.43
2017-09-28T19:12:32.960Z,19.30
2017-09-28T19:15:02.031Z,19.23
2017-09-28T19:17:31.855Z,19.17
2017-09-28T19:20:00.931Z,19.09
2017-09-28T19:22:30.751Z,19.02
2017-09-28T19:24:59.859Z,18.96
2017-09-28T19:27:29.011Z,18.89
2017-09-28T19:29:58.070Z,18.95
2017-09-28T19:32:27.157Z,18.99
2017-09-28T19:34:56.231Z,19.01
2017-09-28T19:37:26.102Z,18.94
2017-09-28T19:39:55.196Z,18.96
2017-09-28T19:42:24.830Z,18.97
2017-09-28T19:44:53.879Z,18.98
2017-09-28T19:47:22.990Z,18.93
2017-09-28T19:49:52.059Z,18.94
2017-09-28T19:52:21.293Z,18.92
2017-09-28T19:54:50.422Z,18.90
2017-09-28T19:57:19.555Z,18.95
2017-09-28T19:59:48.614Z,18.98
2017-09-28T20:02:18.468Z,18.96
2017-09-28T20:04:47.592Z,19.02
2017-09-28T20:07:16.644Z,18.98
2017-09-28T20:09:45.726Z,19.03
2017-09-28T20:12:14.836Z,19.05
2017-09-28T20:14:43.921Z,19.09
2017-09-28T20:17:13.805Z,19.14
2017-09-28T20:19:43.684Z,19.13
2017-09-28T20:22:12.761Z,19.22
2017-09-28T20:24:41.837Z,19.23
2017-09-28T20:27:10.921Z,19.25
2017-09-28T20:29:40.752Z,19.32
2017-09-28T20:32:09.849Z,19.32
2017-09-28T20:34:38.913Z,19.36
2017-09-28T20:37:08.748Z,19.42
2017-09-28T20:39:37.828Z,19.48
2017-09-28T20:42:07.684Z,19.42
2017-09-28T20:44:36.747Z,19.44
2017-09-28T20:47:05.829Z,19.49
2017-09-28T20:49:35.654Z,19.47
2017-09-28T20:52:04.756Z,19.42
2017-09-28T20:54:34.584Z,19.46
2017-09-28T20:57:03.696Z,19.41
2017-09-28T20:59:32.743Z,19.41
2017-09-28T21:02:02.593Z,19.45
2017-09-28T21:04:31.720Z,19.46
2017-09-28T21:07:00.781Z,19.49
2017-09-28T21:09:29.859Z,19.50
2017-09-28T21:11:58.977Z,19.51
2017-09-28T21:14:28.118Z,19.50
2017-09-28T21:16:57.144Z,19.47
2017-09-28T21:19:26.228Z,19.44
2017-09-28T21:21:56.042Z,19.47
2017-09-28T21:24:25.093Z,19.41
2017-09-28T21:26:54.194Z,19.43
2017-09-28T21:29:23.236Z,19.39
2017-09-28T21:31:52.357Z,19.40
2017-09-28T21:34:21.449Z,19.36
2017-09-28T21:36:51.282Z,19.34
2017-09-28T21:39:20.521Z,19.33
2017-09-28T21:41:50.344Z,19.23
2017-09-28T21:44:19.434Z,19.22
2017-09-28T21:46:49.252Z,19.23
2017-09-28T21:49:19.102Z,19.23
2017-09-28T21:51:49.282Z,19.23
2017-09-28T21:54:18.385Z,19.24
2017-09-28T21:56:47.463Z,19.29
2017-09-28T21:59:17.278Z,19.29
2017-09-28T22:01:47.133Z,19.29
2017-09-28T22:04:16.195Z,19.32
2017-09-28T22:06:46.059Z,19.29
2017-09-28T22:09:15.141Z,19.26
2017-09-28T22:11:44.228Z,19.28
2017-09-28T22:14:13.383Z,19.28
2017-09-28T22:16:42.434Z,19.26
2017-09-28T22:19:11.520Z,19.27
2017-09-28T22:21:40.572Z,19.28
2017-09-28T22:24:10.392Z,19.26
2017-09-28T22:26:39.509Z,19.23
2017-09-28T22:29:08.621Z,19.15
2017-09-28T22:31:37.709Z,19.08
2017-09-28T22:34:07.152Z,19.03
2017-09-28T22:36:36.223Z,19.02
2017-09-28T22:39:05.312Z,18.99
2017-09-28T22:41:34.401Z,18.93
2017-09-28T22:44:03.518Z,18.89
2017-09-28T22:46:32.601Z,18.90
2017-09-28T22:49:01.679Z,18.86
2017-09-28T22:51:30.744Z,18.87
2017-09-28T22:54:00.749Z,18.81
2017-09-28T22:56:29.826Z,18.81
2017-09-28T22:58:58.915Z,18.83
2017-09-28T23:01:27.993Z,18.84
2017-09-28T23:03:57.072Z,18.83
2017-09-28T23:06:26.124Z,18.81
2017-09-28T23:08:55.233Z,18.69
2017-09-28T23:11:25.082Z,18.72
2017-09-28T23:13:54.153Z,18.74
2017-09-28T23:16:23.333Z,18.76
2017-09-28T23:18:52.420Z,18.79
2017-09-28T23:21:21.469Z,18.79
2017-09-28T23:23:50.537Z,18.82
2017-09-28T23:26:19.605Z,18.85
2017-09-28T23:28:49.455Z,18.88
2017-09-28T23:31:18.544Z,18.85
2017-09-28T23:33:47.633Z,18.81
2017-09-28T23:36:16.744Z,18.78
2017-09-28T23:38:45.833Z,18.75
2017-09-28T23:41:14.912Z,18.76
2017-09-28T23:43:44.736Z,18.68
2017-09-28T23:46:13.973Z,18.67
2017-09-28T23:48:43.048Z,18.67
2017-09-28T23:51:12.900Z,18.65
2017-09-28T23:53:41.993Z,18.62
2017-09-28T23:56:11.078Z,18.61
2017-09-28T23:58:40.160Z,18.60
